sensor_id;sensor_type;location;lat;lon;timestamp;P1;durP1;ratioP1;P2;durP2;ratioP2
30247;SDS011;17063;50.892;4.702;2023-10-31T00:01:30;15.67;;;7.53;;
30247;SDS011;17063;50.892;4.702;2023-10-31T00:03:57;12.13;;;7.50;;
30247;SDS011;17063;50.892;4.702;2023-10-31T00:06:24;14.53;;;8.23;;
30247;SDS011;17063;50.892;4.702;2023-10-31T00:08:51;15.43;;;7.57;;
30247;SDS011;17063;50.892;4.702;2023-10-31T00:11:18;13.70;;;8.57;;
30247;SDS011;17063;50.892;4.702;2023-10-31T00:13:45;15.57;;;8.57;;
30247;SDS011;17063;50.892;4.702;2023-10-31T00:16:12;14.60;;;8.13;;
30247;SDS011;17063;50.892;4.702;2023-10-31T00:18:39;18.03;;;9.43;;
30247;SDS011;17063;50.892;4.702;2023-10-31T00:21:06;17.27;;;8.77;;
30247;SDS011;17063;50.892;4.702;2023-10-31T00:23:33;14.73;;;8.03;;
30247;SDS011;17063;50.892;4.702;2023-10-31T00:26:00;14.03;;;9.07;;
30247;SDS011;17063;50.892;4.702;2023-10-31T00:28:27;18.47;;;8.57;;
30247;SDS011;17063;50.892;4.702;2023-10-31T00:30:54;17.77;;;8.93;;
30247;SDS011;17063;50.892;4.702;2023-10-31T00:33:22;18.10;;;9.07;;
30247;SDS011;17063;50.892;4.702;2023-10-31T00:35:49;16.07;;;8.80;;
30247;SDS011;17063;50.892;4.702;2023-10-31T00:38:16;14.60;;;8.93;;
30247;SDS011;17063;50.892;4.702;2023-10-31T00:40:43;16.40;;;9.27;;
30247;SDS011;17063;50.892;4.702;2023-10-31T00:43:09;16.33;;;9.00;;
30247;SDS011;17063;50.892;4.702;2023-10-31T00:45:45;19.13;;;8.63;;
30247;SDS011;17063;50.892;4.702;2023-10-31T00:48:15;15.13;;;8.73;;
30247;SDS011;17063;50.892;4.702;2023-10-31T00:50:42;14.13;;;8.30;;
30247;SDS011;17063;50.892;4.702;2023-10-31T00:53:10;14.77;;;7.70;;
30247;SDS011;17063;50.892;4.702;2023-10-31T00:55:36;13.07;;;7.30;;
30247;SDS011;17063;50.892;4.702;2023-10-31T00:58:04;32.57;;;8.37;;
30247;SDS011;17063;50.892;4.702;2023-10-31T01:00:31;12.67;;;7.07;;
30247;SDS011;17063;50.892;4.702;2023-10-31T01:02:58;13.73;;;7.30;;
30247;SDS011;17063;50.892;4.702;2023-10-31T01:05:25;10.50;;;6.40;;
30247;SDS011;17063;50.892;4.702;2023-10-31T01:07:53;9.13;;;6.23;;
30247;SDS011;17063;50.892;4.702;2023-10-31T01:10:20;9.80;;;5.77;;
30247;SDS011;17063;50.892;4.702;2023-10-31T01:12:47;9.60;;;5.57;;
30247;SDS011;17063;50.892;4.702;2023-10-31T01:15:14;8.50;;;5.33;;
30247;SDS011;17063;50.892;4.702;2023-10-31T01:17:41;8.43;;;5.03;;
30247;SDS011;17063;50.892;4.702;2023-10-31T01:20:08;9.47;;;5.13;;
30247;SDS011;17063;50.892;4.702;2023-10-31T01:22:36;9.33;;;5.30;;
30247;SDS011;17063;50.892;4.702;2023-10-31T01:25:03;9.47;;;4.60;;
30247;SDS011;17063;50.892;4.702;2023-10-31T01:27:30;8.47;;;4.40;;
30247;SDS011;17063;50.892;4.702;2023-10-31T01:29:57;9.60;;;5.07;;
30247;SDS011;17063;50.892;4.702;2023-10-31T01:32:24;8.60;;;4.80;;
30247;SDS011;17063;50.892;4.702;2023-10-31T01:34:51;7.40;;;4.43;;
30247;SDS011;17063;50.892;4.702;2023-10-31T01:37:18;7.27;;;4.57;;
30247;SDS011;17063;50.892;4.702;2023-10-31T01:39:46;10.43;;;5.00;;
30247;SDS011;17063;50.892;4.702;2023-10-31T01:42:14;11.90;;;4.77;;
30247;SDS011;17063;50.892;4.702;2023-10-31T01:44:41;6.33;;;4.33;;
30247;SDS011;17063;50.892;4.702;2023-10-31T01:47:08;8.17;;;4.57;;
30247;SDS011;17063;50.892;4.702;2023-10-31T01:49:36;10.33;;;5.03;;
30247;SDS011;17063;50.892;4.702;2023-10-31T01:52:03;8.40;;;4.20;;
30247;SDS011;17063;50.892;4.702;2023-10-31T01:54:32;6.83;;;4.37;;
30247;SDS011;17063;50.892;4.702;2023-10-31T01:57:00;7.80;;;4.40;;
30247;SDS011;17063;50.892;4.702;2023-10-31T01:59:27;6.70;;;4.47;;
30247;SDS011;17063;50.892;4.702;2023-10-31T02:01:55;8.00;;;4.60;;
30247;SDS011;17063;50.892;4.702;2023-10-31T02:04:23;7.83;;;4.40;;
30247;SDS011;17063;50.892;4.702;2023-10-31T02:06:50;5.33;;;3.60;;
30247;SDS011;17063;50.892;4.702;2023-10-31T02:09:18;4.17;;;3.33;;
30247;SDS011;17063;50.892;4.702;2023-10-31T02:11:45;4.87;;;3.27;;
30247;SDS011;17063;50.892;4.702;2023-10-31T02:14:11;7.53;;;3.60;;
30247;SDS011;17063;50.892;4.702;2023-10-31T02:16:38;5.43;;;3.43;;
30247;SDS011;17063;50.892;4.702;2023-10-31T02:19:06;6.87;;;3.40;;
30247;SDS011;17063;50.892;4.702;2023-10-31T02:21:33;6.07;;;3.47;;
30247;SDS011;17063;50.892;4.702;2023-10-31T02:24:01;9.03;;;3.30;;
30247;SDS011;17063;50.892;4.702;2023-10-31T02:26:32;6.27;;;3.30;;
30247;SDS011;17063;50.892;4.702;2023-10-31T02:29:00;4.70;;;3.60;;
30247;SDS011;17063;50.892;4.702;2023-10-31T02:31:28;6.13;;;3.63;;
30247;SDS011;17063;50.892;4.702;2023-10-31T02:33:55;7.03;;;3.50;;
30247;SDS011;17063;50.892;4.702;2023-10-31T02:36:22;5.67;;;3.37;;
30247;SDS011;17063;50.892;4.702;2023-10-31T02:38:49;5.53;;;3.00;;
30247;SDS011;17063;50.892;4.702;2023-10-31T02:41:16;6.07;;;3.37;;
30247;SDS011;17063;50.892;4.702;2023-10-31T02:43:43;4.83;;;3.43;;
30247;SDS011;17063;50.892;4.702;2023-10-31T02:46:11;3.33;;;2.77;;
30247;SDS011;17063;50.892;4.702;2023-10-31T02:48:41;7.07;;;3.50;;
30247;SDS011;17063;50.892;4.702;2023-10-31T02:51:08;4.00;;;3.30;;
30247;SDS011;17063;50.892;4.702;2023-10-31T02:53:35;6.13;;;3.60;;
30247;SDS011;17063;50.892;4.702;2023-10-31T02:56:03;4.13;;;3.40;;
30247;SDS011;17063;50.892;4.702;2023-10-31T02:58:31;5.40;;;3.27;;
30247;SDS011;17063;50.892;4.702;2023-10-31T03:01:00;6.03;;;3.13;;
30247;SDS011;17063;50.892;4.702;2023-10-31T03:03:28;5.97;;;2.93;;
30247;SDS011;17063;50.892;4.702;2023-10-31T03:05:55;6.83;;;3.30;;
30247;SDS011;17063;50.892;4.702;2023-10-31T03:08:22;4.33;;;3.00;;
30247;SDS011;17063;50.892;4.702;2023-10-31T03:10:50;3.87;;;3.00;;
30247;SDS011;17063;50.892;4.702;2023-10-31T03:13:17;4.97;;;3.43;;
30247;SDS011;17063;50.892;4.702;2023-10-31T03:15:48;4.40;;;3.10;;
30247;SDS011;17063;50.892;4.702;2023-10-31T03:18:15;5.57;;;3.20;;
30247;SDS011;17063;50.892;4.702;2023-10-31T03:20:43;5.13;;;3.20;;
30247;SDS011;17063;50.892;4.702;2023-10-31T03:23:12;3.53;;;3.10;;
30247;SDS011;17063;50.892;4.702;2023-10-31T03:25:39;3.13;;;2.90;;
30247;SDS011;17063;50.892;4.702;2023-10-31T03:28:08;7.97;;;3.07;;
30247;SDS011;17063;50.892;4.702;2023-10-31T03:30:45;4.93;;;2.80;;
30247;SDS011;17063;50.892;4.702;2023-10-31T03:33:13;4.23;;;2.80;;
30247;SDS011;17063;50.892;4.702;2023-10-31T03:35:40;4.00;;;2.80;;
30247;SDS011;17063;50.892;4.702;2023-10-31T03:38:07;6.13;;;2.70;;
30247;SDS011;17063;50.892;4.702;2023-10-31T03:40:35;5.60;;;3.03;;
30247;SDS011;17063;50.892;4.702;2023-10-31T03:43:02;5.27;;;3.10;;
30247;SDS011;17063;50.892;4.702;2023-10-31T03:45:29;6.67;;;3.00;;
30247;SDS011;17063;50.892;4.702;2023-10-31T03:47:58;5.37;;;3.67;;
30247;SDS011;17063;50.892;4.702;2023-10-31T03:50:25;5.67;;;3.57;;
30247;SDS011;17063;50.892;4.702;2023-10-31T03:52:53;4.37;;;3.20;;
30247;SDS011;17063;50.892;4.702;2023-10-31T03:55:20;4.90;;;3.60;;
30247;SDS011;17063;50.892;4.702;2023-10-31T03:57:46;4.60;;;4.03;;
30247;SDS011;17063;50.892;4.702;2023-10-31T04:00:13;5.30;;;4.27;;
30247;SDS011;17063;50.892;4.702;2023-10-31T04:02:41;5.40;;;3.90;;
30247;SDS011;17063;50.892;4.702;2023-10-31T04:05:08;4.40;;;4.00;;
30247;SDS011;17063;50.892;4.702;2023-10-31T04:07:35;5.83;;;4.03;;
30247;SDS011;17063;50.892;4.702;2023-10-31T04:10:02;4.47;;;4.00;;
30247;SDS011;17063;50.892;4.702;2023-10-31T04:12:29;4.63;;;4.23;;
30247;SDS011;17063;50.892;4.702;2023-10-31T04:14:56;7.13;;;4.23;;
30247;SDS011;17063;50.892;4.702;2023-10-31T04:17:23;4.53;;;3.83;;
30247;SDS011;17063;50.892;4.702;2023-10-31T04:19:50;4.07;;;3.70;;
30247;SDS011;17063;50.892;4.702;2023-10-31T04:22:17;7.20;;;4.00;;
30247;SDS011;17063;50.892;4.702;2023-10-31T04:24:44;5.77;;;3.80;;
30247;SDS011;17063;50.892;4.702;2023-10-31T04:27:11;5.83;;;3.87;;
30247;SDS011;17063;50.892;4.702;2023-10-31T04:29:38;4.33;;;3.90;;
30247;SDS011;17063;50.892;4.702;2023-10-31T04:32:05;6.77;;;3.70;;
30247;SDS011;17063;50.892;4.702;2023-10-31T04:34:32;6.00;;;3.60;;
30247;SDS011;17063;50.892;4.702;2023-10-31T04:36:59;4.63;;;3.83;;
30247;SDS011;17063;50.892;4.702;2023-10-31T04:39:26;4.37;;;3.40;;
30247;SDS011;17063;50.892;4.702;2023-10-31T04:41:53;4.53;;;3.67;;
30247;SDS011;17063;50.892;4.702;2023-10-31T04:44:20;4.17;;;3.57;;
30247;SDS011;17063;50.892;4.702;2023-10-31T04:46:47;5.50;;;3.73;;
30247;SDS011;17063;50.892;4.702;2023-10-31T04:49:15;6.93;;;3.97;;
30247;SDS011;17063;50.892;4.702;2023-10-31T04:51:41;6.33;;;4.10;;
30247;SDS011;17063;50.892;4.702;2023-10-31T04:54:08;5.23;;;3.67;;
30247;SDS011;17063;50.892;4.702;2023-10-31T04:56:35;5.87;;;3.80;;
30247;SDS011;17063;50.892;4.702;2023-10-31T04:59:03;4.10;;;3.33;;
30247;SDS011;17063;50.892;4.702;2023-10-31T05:01:31;4.53;;;3.57;;
30247;SDS011;17063;50.892;4.702;2023-10-31T05:03:58;5.23;;;4.17;;
30247;SDS011;17063;50.892;4.702;2023-10-31T05:06:38;9.70;;;4.20;;
30247;SDS011;17063;50.892;4.702;2023-10-31T05:09:05;6.10;;;4.10;;
30247;SDS011;17063;50.892;4.702;2023-10-31T05:11:32;9.90;;;4.40;;
30247;SDS011;17063;50.892;4.702;2023-10-31T05:13:59;8.50;;;4.83;;
30247;SDS011;17063;50.892;4.702;2023-10-31T05:16:26;5.80;;;4.30;;
30247;SDS011;17063;50.892;4.702;2023-10-31T05:18:52;5.23;;;4.47;;
30247;SDS011;17063;50.892;4.702;2023-10-31T05:21:20;8.37;;;4.87;;
30247;SDS011;17063;50.892;4.702;2023-10-31T05:23:47;6.80;;;5.03;;
30247;SDS011;17063;50.892;4.702;2023-10-31T05:26:14;7.43;;;5.50;;
30247;SDS011;17063;50.892;4.702;2023-10-31T05:28:41;7.07;;;4.77;;
30247;SDS011;17063;50.892;4.702;2023-10-31T05:31:07;9.33;;;5.53;;
30247;SDS011;17063;50.892;4.702;2023-10-31T05:33:34;6.93;;;5.23;;
30247;SDS011;17063;50.892;4.702;2023-10-31T05:36:01;7.53;;;5.40;;
30247;SDS011;17063;50.892;4.702;2023-10-31T05:38:28;7.07;;;5.67;;
30247;SDS011;17063;50.892;4.702;2023-10-31T05:40:56;9.13;;;6.10;;
30247;SDS011;17063;50.892;4.702;2023-10-31T05:43:23;8.63;;;5.60;;
30247;SDS011;17063;50.892;4.702;2023-10-31T05:45:52;7.23;;;5.57;;
30247;SDS011;17063;50.892;4.702;2023-10-31T05:48:19;9.00;;;5.80;;
30247;SDS011;17063;50.892;4.702;2023-10-31T05:50:46;7.83;;;5.73;;
30247;SDS011;17063;50.892;4.702;2023-10-31T05:53:13;8.77;;;5.60;;
30247;SDS011;17063;50.892;4.702;2023-10-31T05:55:40;9.47;;;6.17;;
30247;SDS011;17063;50.892;4.702;2023-10-31T05:58:06;9.20;;;5.77;;
30247;SDS011;17063;50.892;4.702;2023-10-31T06:00:33;9.00;;;6.30;;
30247;SDS011;17063;50.892;4.702;2023-10-31T06:03:01;8.70;;;5.00;;
30247;SDS011;17063;50.892;4.702;2023-10-31T06:05:29;10.70;;;5.77;;
30247;SDS011;17063;50.892;4.702;2023-10-31T06:07:56;9.50;;;5.20;;
30247;SDS011;17063;50.892;4.702;2023-10-31T06:10:24;9.07;;;5.60;;
30247;SDS011;17063;50.892;4.702;2023-10-31T06:12:50;6.33;;;5.50;;
30247;SDS011;17063;50.892;4.702;2023-10-31T06:15:17;6.77;;;5.77;;
30247;SDS011;17063;50.892;4.702;2023-10-31T06:17:53;8.70;;;5.67;;
30247;SDS011;17063;50.892;4.702;2023-10-31T06:20:46;8.57;;;5.73;;
30247;SDS011;17063;50.892;4.702;2023-10-31T06:23:17;7.33;;;5.77;;
30247;SDS011;17063;50.892;4.702;2023-10-31T06:25:48;6.93;;;5.30;;
30247;SDS011;17063;50.892;4.702;2023-10-31T06:28:16;8.97;;;5.57;;
30247;SDS011;17063;50.892;4.702;2023-10-31T06:30:45;9.37;;;5.07;;
30247;SDS011;17063;50.892;4.702;2023-10-31T06:33:21;7.20;;;5.27;;
30247;SDS011;17063;50.892;4.702;2023-10-31T06:35:47;5.90;;;5.30;;
30247;SDS011;17063;50.892;4.702;2023-10-31T06:38:14;8.53;;;5.80;;
30247;SDS011;17063;50.892;4.702;2023-10-31T06:40:41;7.10;;;5.43;;
30247;SDS011;17063;50.892;4.702;2023-10-31T06:43:08;8.33;;;5.37;;
30247;SDS011;17063;50.892;4.702;2023-10-31T06:45:35;9.10;;;5.20;;
30247;SDS011;17063;50.892;4.702;2023-10-31T06:48:02;8.47;;;5.10;;
30247;SDS011;17063;50.892;4.702;2023-10-31T06:50:30;5.70;;;4.80;;
30247;SDS011;17063;50.892;4.702;2023-10-31T06:52:59;7.23;;;4.90;;
30247;SDS011;17063;50.892;4.702;2023-10-31T06:55:39;8.73;;;4.60;;
30247;SDS011;17063;50.892;4.702;2023-10-31T06:58:06;6.77;;;4.70;;
30247;SDS011;17063;50.892;4.702;2023-10-31T07:00:32;6.13;;;4.83;;
30247;SDS011;17063;50.892;4.702;2023-10-31T07:03:00;5.53;;;4.43;;
30247;SDS011;17063;50.892;4.702;2023-10-31T07:05:32;6.67;;;4.57;;
30247;SDS011;17063;50.892;4.702;2023-10-31T07:07:59;7.27;;;4.77;;
30247;SDS011;17063;50.892;4.702;2023-10-31T07:10:26;8.33;;;4.70;;
30247;SDS011;17063;50.892;4.702;2023-10-31T07:12:53;8.07;;;4.83;;
30247;SDS011;17063;50.892;4.702;2023-10-31T07:15:20;6.67;;;4.30;;
30247;SDS011;17063;50.892;4.702;2023-10-31T07:17:47;5.97;;;4.27;;
30247;SDS011;17063;50.892;4.702;2023-10-31T07:20:14;6.30;;;4.10;;
30247;SDS011;17063;50.892;4.702;2023-10-31T07:22:41;5.57;;;4.20;;
30247;SDS011;17063;50.892;4.702;2023-10-31T07:25:08;9.57;;;4.60;;
30247;SDS011;17063;50.892;4.702;2023-10-31T07:27:35;8.43;;;4.23;;
30247;SDS011;17063;50.892;4.702;2023-10-31T07:30:03;5.43;;;3.87;;
30247;SDS011;17063;50.892;4.702;2023-10-31T07:32:30;6.20;;;4.07;;
30247;SDS011;17063;50.892;4.702;2023-10-31T07:34:58;5.40;;;3.47;;
30247;SDS011;17063;50.892;4.702;2023-10-31T07:37:25;6.23;;;4.37;;
30247;SDS011;17063;50.892;4.702;2023-10-31T07:39:52;6.37;;;4.23;;
30247;SDS011;17063;50.892;4.702;2023-10-31T07:42:19;5.43;;;4.17;;
30247;SDS011;17063;50.892;4.702;2023-10-31T07:44:46;4.83;;;3.87;;
30247;SDS011;17063;50.892;4.702;2023-10-31T07:47:13;5.67;;;4.33;;
30247;SDS011;17063;50.892;4.702;2023-10-31T07:49:40;10.07;;;4.70;;
30247;SDS011;17063;50.892;4.702;2023-10-31T07:52:07;8.27;;;3.97;;
30247;SDS011;17063;50.892;4.702;2023-10-31T07:54:34;5.90;;;4.33;;
30247;SDS011;17063;50.892;4.702;2023-10-31T07:57:01;6.60;;;3.93;;
30247;SDS011;17063;50.892;4.702;2023-10-31T07:59:28;11.60;;;4.30;;
30247;SDS011;17063;50.892;4.702;2023-10-31T08:01:55;5.73;;;4.10;;
30247;SDS011;17063;50.892;4.702;2023-10-31T08:04:22;5.17;;;3.83;;
30247;SDS011;17063;50.892;4.702;2023-10-31T08:06:49;5.83;;;4.00;;
30247;SDS011;17063;50.892;4.702;2023-10-31T08:09:16;7.77;;;3.80;;
30247;SDS011;17063;50.892;4.702;2023-10-31T08:11:42;6.10;;;3.90;;
30247;SDS011;17063;50.892;4.702;2023-10-31T08:14:09;6.63;;;3.70;;
30247;SDS011;17063;50.892;4.702;2023-10-31T08:16:36;4.57;;;3.33;;
30247;SDS011;17063;50.892;4.702;2023-10-31T08:19:04;5.93;;;3.63;;
30247;SDS011;17063;50.892;4.702;2023-10-31T08:21:31;4.67;;;3.83;;
30247;SDS011;17063;50.892;4.702;2023-10-31T08:24:02;5.50;;;4.07;;
30247;SDS011;17063;50.892;4.702;2023-10-31T08:26:32;6.90;;;3.63;;
30247;SDS011;17063;50.892;4.702;2023-10-31T08:29:00;4.70;;;3.50;;
30247;SDS011;17063;50.892;4.702;2023-10-31T08:31:27;6.77;;;3.87;;
30247;SDS011;17063;50.892;4.702;2023-10-31T08:33:54;5.17;;;3.53;;
30247;SDS011;17063;50.892;4.702;2023-10-31T08:36:21;8.10;;;3.87;;
30247;SDS011;17063;50.892;4.702;2023-10-31T08:38:48;4.40;;;3.73;;
30247;SDS011;17063;50.892;4.702;2023-10-31T08:41:15;4.20;;;3.40;;
30247;SDS011;17063;50.892;4.702;2023-10-31T08:43:46;5.37;;;3.50;;
30247;SDS011;17063;50.892;4.702;2023-10-31T08:46:13;4.43;;;3.10;;
30247;SDS011;17063;50.892;4.702;2023-10-31T08:48:40;3.87;;;3.30;;
30247;SDS011;17063;50.892;4.702;2023-10-31T08:51:07;8.53;;;3.37;;
30247;SDS011;17063;50.892;4.702;2023-10-31T08:53:34;3.80;;;3.27;;
30247;SDS011;17063;50.892;4.702;2023-10-31T08:56:01;6.13;;;3.30;;
30247;SDS011;17063;50.892;4.702;2023-10-31T08:58:28;7.80;;;3.93;;
30247;SDS011;17063;50.892;4.702;2023-10-31T09:00:56;4.13;;;3.07;;
30247;SDS011;17063;50.892;4.702;2023-10-31T09:03:23;5.97;;;3.20;;
30247;SDS011;17063;50.892;4.702;2023-10-31T09:05:49;5.23;;;3.33;;
30247;SDS011;17063;50.892;4.702;2023-10-31T09:08:16;6.43;;;3.50;;
30247;SDS011;17063;50.892;4.702;2023-10-31T09:10:43;5.77;;;3.63;;
30247;SDS011;17063;50.892;4.702;2023-10-31T09:13:12;6.57;;;3.70;;
30247;SDS011;17063;50.892;4.702;2023-10-31T09:15:40;11.77;;;4.03;;
30247;SDS011;17063;50.892;4.702;2023-10-31T09:18:08;5.97;;;3.70;;
30247;SDS011;17063;50.892;4.702;2023-10-31T09:20:35;4.93;;;3.53;;
30247;SDS011;17063;50.892;4.702;2023-10-31T09:23:02;7.43;;;3.70;;
30247;SDS011;17063;50.892;4.702;2023-10-31T09:25:28;8.07;;;3.80;;
30247;SDS011;17063;50.892;4.702;2023-10-31T09:27:57;8.00;;;3.70;;
30247;SDS011;17063;50.892;4.702;2023-10-31T09:30:26;5.17;;;3.30;;
30247;SDS011;17063;50.892;4.702;2023-10-31T09:32:53;5.17;;;4.03;;
30247;SDS011;17063;50.892;4.702;2023-10-31T09:35:20;5.90;;;3.70;;
30247;SDS011;17063;50.892;4.702;2023-10-31T09:37:47;8.97;;;3.67;;
30247;SDS011;17063;50.892;4.702;2023-10-31T09:40:15;7.43;;;3.27;;
30247;SDS011;17063;50.892;4.702;2023-10-31T09:42:43;6.43;;;3.03;;
30247;SDS011;17063;50.892;4.702;2023-10-31T09:45:11;7.83;;;3.47;;
30247;SDS011;17063;50.892;4.702;2023-10-31T09:47:39;5.70;;;3.63;;
30247;SDS011;17063;50.892;4.702;2023-10-31T09:50:07;8.20;;;3.00;;
30247;SDS011;17063;50.892;4.702;2023-10-31T09:52:36;10.23;;;3.33;;
30247;SDS011;17063;50.892;4.702;2023-10-31T09:55:03;7.73;;;3.20;;
30247;SDS011;17063;50.892;4.702;2023-10-31T09:57:31;6.17;;;3.50;;
30247;SDS011;17063;50.892;4.702;2023-10-31T09:59:58;5.10;;;3.00;;
30247;SDS011;17063;50.892;4.702;2023-10-31T10:02:25;4.50;;;2.90;;
30247;SDS011;17063;50.892;4.702;2023-10-31T10:04:52;6.97;;;2.73;;
30247;SDS011;17063;50.892;4.702;2023-10-31T10:07:20;5.03;;;2.40;;
30247;SDS011;17063;50.892;4.702;2023-10-31T10:09:47;4.70;;;2.43;;
30247;SDS011;17063;50.892;4.702;2023-10-31T10:12:14;5.90;;;2.27;;
30247;SDS011;17063;50.892;4.702;2023-10-31T10:14:42;6.00;;;2.40;;
30247;SDS011;17063;50.892;4.702;2023-10-31T10:17:29;5.70;;;2.27;;
30247;SDS011;17063;50.892;4.702;2023-10-31T10:20:18;4.60;;;2.33;;
30247;SDS011;17063;50.892;4.702;2023-10-31T10:22:44;4.27;;;2.00;;
30247;SDS011;17063;50.892;4.702;2023-10-31T10:25:14;6.43;;;2.20;;
30247;SDS011;17063;50.892;4.702;2023-10-31T10:27:44;9.53;;;2.70;;
30247;SDS011;17063;50.892;4.702;2023-10-31T10:30:13;9.53;;;3.23;;
30247;SDS011;17063;50.892;4.702;2023-10-31T10:32:41;10.43;;;3.00;;
30247;SDS011;17063;50.892;4.702;2023-10-31T10:35:10;5.47;;;2.60;;
30247;SDS011;17063;50.892;4.702;2023-10-31T10:37:37;7.30;;;2.60;;
30247;SDS011;17063;50.892;4.702;2023-10-31T10:40:05;7.20;;;2.27;;
30247;SDS011;17063;50.892;4.702;2023-10-31T10:42:47;6.33;;;2.63;;
30247;SDS011;17063;50.892;4.702;2023-10-31T10:45:15;7.20;;;2.60;;
30247;SDS011;17063;50.892;4.702;2023-10-31T10:47:46;7.33;;;2.60;;
30247;SDS011;17063;50.892;4.702;2023-10-31T10:50:15;7.07;;;2.63;;
30247;SDS011;17063;50.892;4.702;2023-10-31T10:52:52;8.07;;;2.00;;
30247;SDS011;17063;50.892;4.702;2023-10-31T10:55:27;7.70;;;2.37;;
30247;SDS011;17063;50.892;4.702;2023-10-31T11:00:26;12.00;;;2.80;;
30247;SDS011;17063;50.892;4.702;2023-10-31T11:02:53;5.83;;;2.37;;
30247;SDS011;17063;50.892;4.702;2023-10-31T11:05:20;9.83;;;2.93;;
30247;SDS011;17063;50.892;4.702;2023-10-31T11:07:47;9.00;;;2.67;;
30247;SDS011;17063;50.892;4.702;2023-10-31T11:10:15;8.40;;;2.40;;
30247;SDS011;17063;50.892;4.702;2023-10-31T11:12:44;9.37;;;2.43;;
30247;SDS011;17063;50.892;4.702;2023-10-31T11:15:12;7.07;;;2.70;;
30247;SDS011;17063;50.892;4.702;2023-10-31T11:17:41;9.97;;;3.43;;
30247;SDS011;17063;50.892;4.702;2023-10-31T11:20:10;5.07;;;2.33;;
30247;SDS011;17063;50.892;4.702;2023-10-31T11:22:41;9.43;;;2.73;;
30247;SDS011;17063;50.892;4.702;2023-10-31T11:25:14;8.07;;;2.80;;
30247;SDS011;17063;50.892;4.702;2023-10-31T11:27:56;13.33;;;3.57;;
30247;SDS011;17063;50.892;4.702;2023-10-31T11:32:51;6.97;;;3.07;;
30247;SDS011;17063;50.892;4.702;2023-10-31T11:35:19;7.50;;;3.10;;
30247;SDS011;17063;50.892;4.702;2023-10-31T11:37:49;8.20;;;3.10;;
30247;SDS011;17063;50.892;4.702;2023-10-31T11:40:17;10.33;;;3.10;;
30247;SDS011;17063;50.892;4.702;2023-10-31T11:45:27;8.17;;;2.80;;
30247;SDS011;17063;50.892;4.702;2023-10-31T11:47:55;8.43;;;3.30;;
30247;SDS011;17063;50.892;4.702;2023-10-31T11:50:38;9.03;;;3.43;;
30247;SDS011;17063;50.892;4.702;2023-10-31T11:53:06;11.13;;;3.70;;
30247;SDS011;17063;50.892;4.702;2023-10-31T11:55:41;6.77;;;2.80;;
30247;SDS011;17063;50.892;4.702;2023-10-31T11:58:12;6.13;;;3.30;;
30247;SDS011;17063;50.892;4.702;2023-10-31T12:00:49;5.47;;;3.20;;
30247;SDS011;17063;50.892;4.702;2023-10-31T12:03:18;12.20;;;3.07;;
30247;SDS011;17063;50.892;4.702;2023-10-31T12:05:53;8.17;;;3.13;;
30247;SDS011;17063;50.892;4.702;2023-10-31T12:10:53;7.30;;;3.70;;
30247;SDS011;17063;50.892;4.702;2023-10-31T12:13:21;7.53;;;3.80;;
30247;SDS011;17063;50.892;4.702;2023-10-31T12:15:51;6.50;;;3.37;;
30247;SDS011;17063;50.892;4.702;2023-10-31T12:18:19;8.07;;;3.80;;
30247;SDS011;17063;50.892;4.702;2023-10-31T12:20:47;7.13;;;3.37;;
30247;SDS011;17063;50.892;4.702;2023-10-31T12:23:17;8.77;;;3.50;;
30247;SDS011;17063;50.892;4.702;2023-10-31T12:25:47;10.60;;;3.13;;
30247;SDS011;17063;50.892;4.702;2023-10-31T12:30:49;8.03;;;3.37;;
30247;SDS011;17063;50.892;4.702;2023-10-31T12:33:16;8.10;;;3.60;;
30247;SDS011;17063;50.892;4.702;2023-10-31T12:35:44;10.53;;;3.43;;
30247;SDS011;17063;50.892;4.702;2023-10-31T12:38:11;11.10;;;3.37;;
30247;SDS011;17063;50.892;4.702;2023-10-31T12:40:45;6.70;;;2.93;;
30247;SDS011;17063;50.892;4.702;2023-10-31T12:43:12;11.23;;;2.83;;
30247;SDS011;17063;50.892;4.702;2023-10-31T12:45:40;8.47;;;3.30;;
30247;SDS011;17063;50.892;4.702;2023-10-31T12:48:07;5.83;;;2.70;;
30247;SDS011;17063;50.892;4.702;2023-10-31T12:50:36;8.47;;;2.83;;
30247;SDS011;17063;50.892;4.702;2023-10-31T12:53:06;7.63;;;3.23;;
30247;SDS011;17063;50.892;4.702;2023-10-31T12:55:40;5.07;;;2.73;;
30247;SDS011;17063;50.892;4.702;2023-10-31T12:58:08;8.70;;;3.00;;
30247;SDS011;17063;50.892;4.702;2023-10-31T13:00:37;6.73;;;2.40;;
30247;SDS011;17063;50.892;4.702;2023-10-31T13:03:06;4.73;;;2.70;;
30247;SDS011;17063;50.892;4.702;2023-10-31T13:05:35;4.27;;;2.27;;
30247;SDS011;17063;50.892;4.702;2023-10-31T13:08:14;3.97;;;2.17;;
30247;SDS011;17063;50.892;4.702;2023-10-31T13:10:42;5.87;;;2.50;;
30247;SDS011;17063;50.892;4.702;2023-10-31T13:13:10;2.70;;;1.90;;
30247;SDS011;17063;50.892;4.702;2023-10-31T13:15:39;4.07;;;1.80;;
30247;SDS011;17063;50.892;4.702;2023-10-31T13:18:06;2.73;;;1.90;;
30247;SDS011;17063;50.892;4.702;2023-10-31T13:20:33;4.83;;;1.77;;
30247;SDS011;17063;50.892;4.702;2023-10-31T13:23:00;6.07;;;2.23;;
30247;SDS011;17063;50.892;4.702;2023-10-31T13:25:30;4.33;;;1.77;;
30247;SDS011;17063;50.892;4.702;2023-10-31T13:27:58;5.77;;;1.90;;
30247;SDS011;17063;50.892;4.702;2023-10-31T13:30:25;4.50;;;2.03;;
30247;SDS011;17063;50.892;4.702;2023-10-31T13:32:52;3.57;;;1.63;;
30247;SDS011;17063;50.892;4.702;2023-10-31T13:35:19;2.60;;;1.77;;
30247;SDS011;17063;50.892;4.702;2023-10-31T13:37:47;3.77;;;1.90;;
30247;SDS011;17063;50.892;4.702;2023-10-31T13:40:14;3.33;;;1.70;;
30247;SDS011;17063;50.892;4.702;2023-10-31T13:42:41;2.30;;;1.80;;
30247;SDS011;17063;50.892;4.702;2023-10-31T13:45:08;3.60;;;1.83;;
30247;SDS011;17063;50.892;4.702;2023-10-31T13:47:35;4.10;;;2.10;;
30247;SDS011;17063;50.892;4.702;2023-10-31T13:50:05;3.90;;;2.17;;
30247;SDS011;17063;50.892;4.702;2023-10-31T13:52:33;2.70;;;1.60;;
30247;SDS011;17063;50.892;4.702;2023-10-31T13:55:00;1.83;;;1.60;;
30247;SDS011;17063;50.892;4.702;2023-10-31T13:57:27;4.50;;;2.00;;
30247;SDS011;17063;50.892;4.702;2023-10-31T13:59:55;3.60;;;1.60;;
30247;SDS011;17063;50.892;4.702;2023-10-31T14:02:22;3.63;;;1.77;;
30247;SDS011;17063;50.892;4.702;2023-10-31T14:04:49;5.33;;;2.60;;
30247;SDS011;17063;50.892;4.702;2023-10-31T14:07:20;3.30;;;2.20;;
30247;SDS011;17063;50.892;4.702;2023-10-31T14:09:51;2.70;;;1.80;;
30247;SDS011;17063;50.892;4.702;2023-10-31T14:12:19;2.60;;;2.30;;
30247;SDS011;17063;50.892;4.702;2023-10-31T14:14:46;6.33;;;2.20;;
30247;SDS011;17063;50.892;4.702;2023-10-31T14:17:16;3.57;;;2.23;;
30247;SDS011;17063;50.892;4.702;2023-10-31T14:19:43;3.67;;;2.20;;
30247;SDS011;17063;50.892;4.702;2023-10-31T14:22:13;4.30;;;2.30;;
30247;SDS011;17063;50.892;4.702;2023-10-31T14:24:40;4.83;;;2.50;;
30247;SDS011;17063;50.892;4.702;2023-10-31T14:27:07;3.83;;;2.63;;
30247;SDS011;17063;50.892;4.702;2023-10-31T14:29:34;3.97;;;2.60;;
30247;SDS011;17063;50.892;4.702;2023-10-31T14:32:05;6.03;;;2.57;;
30247;SDS011;17063;50.892;4.702;2023-10-31T14:34:35;3.50;;;2.57;;
30247;SDS011;17063;50.892;4.702;2023-10-31T14:37:02;5.20;;;2.70;;
30247;SDS011;17063;50.892;4.702;2023-10-31T14:39:29;8.03;;;2.80;;
30247;SDS011;17063;50.892;4.702;2023-10-31T14:41:56;4.43;;;2.47;;
30247;SDS011;17063;50.892;4.702;2023-10-31T14:44:23;6.33;;;2.93;;
30247;SDS011;17063;50.892;4.702;2023-10-31T14:46:50;5.40;;;2.90;;
30247;SDS011;17063;50.892;4.702;2023-10-31T14:49:17;4.57;;;2.90;;
30247;SDS011;17063;50.892;4.702;2023-10-31T14:51:44;4.90;;;2.70;;
30247;SDS011;17063;50.892;4.702;2023-10-31T14:54:11;3.37;;;2.80;;
30247;SDS011;17063;50.892;4.702;2023-10-31T14:56:37;6.83;;;3.07;;
30247;SDS011;17063;50.892;4.702;2023-10-31T14:59:04;8.00;;;3.30;;
30247;SDS011;17063;50.892;4.702;2023-10-31T15:01:32;4.87;;;3.03;;
30247;SDS011;17063;50.892;4.702;2023-10-31T15:03:59;4.20;;;3.30;;